Time;durP1;ratioP1;P1;durP2;ratioP2;P2;SDS_P1;SDS_P2;PMS_P1;PMS_P2;Temp;Humidity;BMP_temperature;BMP_pressure;BME280_temperature;BME280_humidity;BME280_pressure;Samples;Min_cycle;Max_cycle;Signal;HPM_P1;HPM_P2
2024/01/04 00:01:34;;;;;;;;;;;10.70;99.90;;;;;;7332083;19;109250;-71
2024/01/04 00:04:01;;;;;;;;;;;10.70;99.90;;;;;;7330373;19;109088;-70
2024/01/04 00:06:28;;;;;;;;;;;10.60;99.90;;;;;;7335037;19;109518;-71
2024/01/04 00:08:55;;;;;;;;;;;10.60;99.90;;;;;;7329581;19;109516;-71
2024/01/04 00:11:23;;;;;;;;;;;10.60;99.90;;;;;;7334667;19;110401;-71
2024/01/04 00:13:50;;;;;;;;;;;10.60;99.90;;;;;;7334202;19;108876;-71
2024/01/04 00:16:18;;;;;;;;;;;10.60;99.90;;;;;;7334538;19;109167;-70
2024/01/04 00:18:45;;;;;;;;;;;10.60;99.90;;;;;;7331942;19;109156;-71
2024/01/04 00:21:13;;;;;;;;;;;10.60;99.90;;;;;;7335489;19;110091;-71
2024/01/04 00:23:41;;;;;;;;;;;10.60;99.90;;;;;;7335236;19;109208;-71
2024/01/04 00:26:08;;;;;;;;;;;10.60;99.90;;;;;;7332195;19;108974;-71
2024/01/04 00:28:35;;;;;;;;;;;10.60;99.90;;;;;;7329144;19;110262;-71
2024/01/04 00:31:02;;;;;;;;;;;10.60;99.90;;;;;;7332022;19;108762;-71
2024/01/04 00:33:29;;;;;;;;;;;10.60;99.90;;;;;;7331025;19;109712;-70
2024/01/04 00:35:57;;;;;;;;;;;10.70;99.90;;;;;;7332641;19;110210;-70
2024/01/04 00:38:24;;;;;;;;;;;10.60;99.90;;;;;;7338899;19;108332;-70
2024/01/04 00:40:51;;;;;;;;;;;10.60;99.90;;;;;;7331948;19;109965;-70
2024/01/04 00:43:19;;;;;;;;;;;10.60;99.90;;;;;;7330642;19;109947;-70
2024/01/04 00:45:46;;;;;;;;;;;10.60;99.90;;;;;;7329730;19;110827;-70
2024/01/04 00:48:13;;;;;;;;;;;10.60;99.90;;;;;;7330323;19;110558;-72
2024/01/04 00:50:40;;;;;;;;;;;10.60;99.90;;;;;;7331394;19;108943;-70
2024/01/04 00:53:07;;;;;;;;;;;10.60;99.90;;;;;;7333694;19;108783;-71
2024/01/04 00:55:36;;;;;;;;;;;10.60;99.90;;;;;;7331275;19;109722;-71
2024/01/04 00:58:05;;;;;;;;;;;10.60;99.90;;;;;;7337969;19;108528;-71
2024/01/04 01:00:32;;;;;;;;;;;10.70;99.90;;;;;;7324885;19;110882;-71
2024/01/04 01:03:00;;;;;;;;;;;10.70;99.90;;;;;;7331859;19;108584;-70
2024/01/04 01:05:27;;;;;;;;;;;10.60;99.90;;;;;;7330168;19;110432;-70
2024/01/04 01:07:54;;;;;;;;;;;10.60;99.90;;;;;;7325070;19;110745;-71
2024/01/04 01:10:21;;;;;;;;;;;10.70;99.90;;;;;;7330195;19;110262;-71
2024/01/04 01:12:49;;;;;;;;;;;10.60;99.90;;;;;;7331059;19;110028;-71
2024/01/04 01:15:16;;;;;;;;;;;10.70;99.90;;;;;;7333680;19;109431;-71
2024/01/04 01:17:43;;;;;;;;;;;10.70;99.90;;;;;;7333598;19;109006;-71
2024/01/04 01:20:11;;;;;;;;;;;10.60;99.90;;;;;;7340147;19;109139;-71
2024/01/04 01:22:38;;;;;;;;;;;10.60;99.90;;;;;;7331266;19;109177;-71
2024/01/04 01:25:05;;;;;;;;;;;10.60;99.90;;;;;;7329297;19;109992;-71
2024/01/04 01:27:32;;;;;;;;;;;10.60;99.90;;;;;;7332768;19;109175;-71
2024/01/04 01:29:59;;;;;;;;;;;10.60;99.90;;;;;;7328505;19;112530;-71
2024/01/04 01:32:26;;;;;;;;;;;10.60;99.90;;;;;;7330880;19;108615;-72
2024/01/04 01:34:54;;;;;;;;;;;10.60;99.90;;;;;;7327586;19;110857;-70
2024/01/04 01:37:21;;;;;;;;;;;10.70;99.90;;;;;;7333156;19;109033;-71
2024/01/04 01:39:48;;;;;;;;;;;10.70;99.90;;;;;;7332500;19;108914;-73
2024/01/04 01:42:17;;;;;;;;;;;10.70;99.90;;;;;;7335358;19;109336;-71
2024/01/04 01:44:44;;;;;;;;;;;10.60;99.90;;;;;;7333297;19;108620;-71
2024/01/04 01:47:11;;;;;;;;;;;10.60;99.90;;;;;;7329669;19;109282;-71
2024/01/04 01:49:38;;;;;;;;;;;10.60;99.90;;;;;;7327924;19;110111;-71
2024/01/04 01:52:05;;;;;;;;;;;10.60;99.90;;;;;;7331135;19;108658;-71
2024/01/04 01:54:32;;;;;;;;;;;10.60;99.90;;;;;;7329665;19;108891;-71
2024/01/04 01:57:00;;;;;;;;;;;10.60;99.90;;;;;;7327752;19;111878;-71
2024/01/04 01:59:27;;;;;;;;;;;10.60;99.90;;;;;;7329184;19;110647;-71
2024/01/04 02:01:55;;;;;;;;;;;10.60;99.90;;;;;;7328774;19;110585;-71
2024/01/04 02:04:22;;;;;;;;;;;10.60;99.90;;;;;;7336164;19;108920;-70
2024/01/04 02:06:49;;;;;;;;;;;10.60;99.90;;;;;;7331277;19;111958;-70
2024/01/04 02:09:16;;;;;;;;;;;10.60;99.90;;;;;;7326836;19;112015;-70
2024/01/04 02:11:44;;;;;;;;;;;10.60;99.90;;;;;;7328628;19;109410;-70
2024/01/04 02:14:11;;;;;;;;;;;10.60;99.90;;;;;;7330103;19;110588;-70
2024/01/04 02:16:38;;;;;;;;;;;10.60;99.90;;;;;;7330489;19;110085;-72
2024/01/04 02:19:07;;;;;;;;;;;10.60;99.90;;;;;;7329712;19;109296;-71
2024/01/04 02:21:37;;;;;;;;;;;10.70;99.90;;;;;;7336948;19;110605;-70
2024/01/04 02:24:05;;;;;;;;;;;10.70;99.90;;;;;;7336037;19;111370;-71
2024/01/04 02:26:32;;;;;;;;;;;10.70;99.90;;;;;;7343562;19;110052;-71
2024/01/04 02:29:00;;;;;;;;;;;10.70;99.90;;;;;;7337035;19;110399;-70
2024/01/04 02:31:27;;;;;;;;;;;10.60;99.90;;;;;;7336274;19;113575;-71
2024/01/04 02:33:54;;;;;;;;;;;10.60;99.90;;;;;;7336710;19;110044;-71
2024/01/04 02:36:22;;;;;;;;;;;10.60;99.90;;;;;;7332930;19;110674;-71
2024/01/04 02:38:49;;;;;;;;;;;10.60;99.90;;;;;;7340422;19;109376;-70
2024/01/04 02:41:16;;;;;;;;;;;10.60;99.90;;;;;;7338153;19;110043;-71
2024/01/04 02:43:43;;;;;;;;;;;10.60;99.90;;;;;;7336371;19;109665;-70
2024/01/04 02:46:10;;;;;;;;;;;10.60;99.90;;;;;;7335166;19;109658;-70
2024/01/04 02:48:37;;;;;;;;;;;10.50;99.90;;;;;;7338919;19;110394;-71
2024/01/04 02:51:05;;;;;;;;;;;10.50;99.90;;;;;;7337326;19;109089;-70
2024/01/04 02:53:32;;;;;;;;;;;10.50;99.90;;;;;;7335749;19;110183;-71
2024/01/04 02:55:59;;;;;;;;;;;10.50;99.90;;;;;;7334453;19;111238;-73
2024/01/04 02:58:26;;;;;;;;;;;10.50;99.90;;;;;;7337223;19;109052;-72
2024/01/04 03:00:53;;;;;;;;;;;10.40;99.90;;;;;;7333603;19;109568;-77
2024/01/04 03:03:20;;;;;;;;;;;10.40;99.90;;;;;;7334952;19;109385;-74
2024/01/04 03:05:48;;;;;;;;;;;10.40;99.90;;;;;;7335630;19;109374;-74
2024/01/04 03:08:15;;;;;;;;;;;10.30;99.90;;;;;;7339587;19;110400;-73
2024/01/04 03:10:42;;;;;;;;;;;10.30;99.90;;;;;;7331851;19;110087;-74
2024/01/04 03:13:09;;;;;;;;;;;10.30;99.90;;;;;;7335953;19;110909;-76
2024/01/04 03:15:36;;;;;;;;;;;10.30;99.90;;;;;;7339173;19;110785;-71
2024/01/04 03:18:04;;;;;;;;;;;10.30;99.90;;;;;;7333605;19;110750;-71
2024/01/04 03:20:31;;;;;;;;;;;10.20;99.90;;;;;;7332680;19;109584;-70
2024/01/04 03:22:59;;;;;;;;;;;10.30;99.90;;;;;;7334209;19;108676;-70
2024/01/04 03:25:26;;;;;;;;;;;10.20;99.90;;;;;;7334508;19;110412;-70
2024/01/04 03:27:53;;;;;;;;;;;10.20;99.90;;;;;;7333443;19;110387;-70
2024/01/04 03:30:20;;;;;;;;;;;10.20;99.90;;;;;;7337058;19;108779;-71
2024/01/04 03:32:47;;;;;;;;;;;10.20;99.90;;;;;;7332204;19;109331;-70
2024/01/04 03:35:14;;;;;;;;;;;10.10;99.90;;;;;;7331296;19;110000;-70
2024/01/04 03:37:42;;;;;;;;;;;10.10;99.90;;;;;;7333702;19;108511;-70
2024/01/04 03:40:09;;;;;;;;;;;10.10;99.90;;;;;;7331279;19;112630;-70
2024/01/04 03:42:36;;;;;;;;;;;10.10;99.90;;;;;;7332881;19;108911;-70
2024/01/04 03:45:04;;;;;;;;;;;10.20;99.90;;;;;;7335064;19;111132;-71
2024/01/04 03:47:32;;;;;;;;;;;10.10;99.90;;;;;;7335453;19;110196;-70
2024/01/04 03:49:59;;;;;;;;;;;10.10;99.90;;;;;;7336037;19;108818;-73
2024/01/04 03:52:28;;;;;;;;;;;10.10;99.90;;;;;;7342462;19;108824;-70
2024/01/04 03:54:55;;;;;;;;;;;10.10;99.90;;;;;;7327229;19;109336;-77
2024/01/04 03:57:22;;;;;;;;;;;10.10;99.90;;;;;;7334330;19;108878;-76
2024/01/04 03:59:49;;;;;;;;;;;10.00;99.90;;;;;;7334578;19;110174;-78
2024/01/04 04:02:16;;;;;;;;;;;10.00;99.90;;;;;;7335992;19;108841;-77
2024/01/04 04:04:43;;;;;;;;;;;10.00;99.90;;;;;;7334929;19;110178;-74
2024/01/04 04:07:10;;;;;;;;;;;10.00;99.90;;;;;;7330885;19;110818;-71
2024/01/04 04:09:37;;;;;;;;;;;10.00;99.90;;;;;;7333838;19;108989;-71
2024/01/04 04:12:05;;;;;;;;;;;10.00;99.90;;;;;;7334029;19;109031;-71
2024/01/04 04:14:34;;;;;;;;;;;10.00;99.90;;;;;;7335940;19;109445;-71
2024/01/04 04:17:01;;;;;;;;;;;10.00;99.90;;;;;;7335906;19;109792;-70
2024/01/04 04:19:29;;;;;;;;;;;10.00;99.90;;;;;;7332898;19;109247;-71
2024/01/04 04:21:56;;;;;;;;;;;10.10;99.90;;;;;;7332260;19;109155;-72
2024/01/04 04:24:24;;;;;;;;;;;10.10;99.90;;;;;;7331338;19;108652;-70
2024/01/04 04:26:51;;;;;;;;;;;10.10;99.90;;;;;;7333258;19;110500;-71
2024/01/04 04:29:18;;;;;;;;;;;10.10;99.90;;;;;;7332718;19;109209;-70
2024/01/04 04:31:48;;;;;;;;;;;10.00;99.90;;;;;;7333555;19;108597;-70
2024/01/04 04:34:15;;;;;;;;;;;10.00;99.90;;;;;;7331917;19;110119;-71
2024/01/04 04:36:42;;;;;;;;;;;10.00;99.90;;;;;;7336126;19;109544;-72
2024/01/04 04:39:10;;;;;;;;;;;10.00;99.90;;;;;;7332521;19;111252;-69
2024/01/04 04:41:40;;;;;;;;;;;10.00;99.90;;;;;;7332392;19;109164;-71
2024/01/04 04:44:07;;;;;;;;;;;10.00;99.90;;;;;;7328609;19;109528;-71
2024/01/04 04:46:34;;;;;;;;;;;10.00;99.90;;;;;;7332047;19;110267;-73
2024/01/04 04:49:01;;;;;;;;;;;10.00;99.90;;;;;;7332311;19;109015;-71
2024/01/04 04:51:29;;;;;;;;;;;10.00;99.90;;;;;;7330930;19;108782;-70
2024/01/04 04:53:56;;;;;;;;;;;10.00;99.90;;;;;;7332886;19;109322;-71
2024/01/04 04:56:23;;;;;;;;;;;10.00;99.90;;;;;;7330566;19;110116;-70
2024/01/04 04:58:50;;;;;;;;;;;10.00;99.90;;;;;;7337754;19;109211;-70
2024/01/04 05:01:17;;;;;;;;;;;10.00;99.90;;;;;;7329002;19;109592;-71
2024/01/04 05:03:44;;;;;;;;;;;10.00;99.90;;;;;;7330904;19;114517;-70
2024/01/04 05:06:15;;;;;;;;;;;10.10;99.90;;;;;;7330867;19;110123;-71
2024/01/04 05:08:43;;;;;;;;;;;10.10;99.90;;;;;;7334372;19;110396;-70
2024/01/04 05:11:11;;;;;;;;;;;10.10;99.90;;;;;;7332046;19;110289;-70
2024/01/04 05:13:38;;;;;;;;;;;10.10;99.90;;;;;;7328911;19;110200;-70
2024/01/04 05:16:05;;;;;;;;;;;10.10;99.90;;;;;;7329611;19;109342;-70
2024/01/04 05:18:33;;;;;;;;;;;10.10;99.90;;;;;;7335930;19;109366;-69
2024/01/04 05:21:00;;;;;;;;;;;10.10;99.90;;;;;;7331453;19;108701;-69
2024/01/04 05:23:27;;;;;;;;;;;10.20;99.90;;;;;;7333472;19;110761;-70
2024/01/04 05:25:54;;;;;;;;;;;10.10;99.90;;;;;;7329571;19;112926;-70
2024/01/04 05:28:22;;;;;;;;;;;10.20;99.90;;;;;;7334377;19;110459;-70
2024/01/04 05:30:49;;;;;;;;;;;10.20;99.90;;;;;;7331638;19;109064;-70
2024/01/04 05:33:17;;;;;;;;;;;10.10;99.90;;;;;;7327081;19;110147;-70
2024/01/04 05:35:45;;;;;;;;;;;10.10;99.90;;;;;;7332395;19;109498;-69
2024/01/04 05:38:13;;;;;;;;;;;10.10;99.90;;;;;;7332249;19;109541;-70
2024/01/04 05:40:40;;;;;;;;;;;10.20;99.90;;;;;;7333334;19;109866;-70
2024/01/04 05:43:07;;;;;;;;;;;10.20;99.90;;;;;;7330136;19;108338;-70
2024/01/04 05:45:34;;;;;;;;;;;10.20;99.90;;;;;;7329871;19;111720;-70
2024/01/04 05:48:01;;;;;;;;;;;10.20;99.90;;;;;;7332196;19;108784;-70
2024/01/04 05:50:28;;;;;;;;;;;10.30;99.90;;;;;;7330671;19;110172;-70
2024/01/04 05:52:55;;;;;;;;;;;10.20;99.90;;;;;;7326132;19;109025;-69
2024/01/04 05:55:22;;;;;;;;;;;10.20;99.90;;;;;;7334858;19;109253;-70
2024/01/04 05:57:49;;;;;;;;;;;10.20;99.90;;;;;;7336366;19;109192;-70
2024/01/04 06:00:17;;;;;;;;;;;10.20;99.90;;;;;;7333633;19;110800;-71
2024/01/04 06:02:45;;;;;;;;;;;10.20;99.90;;;;;;7342057;19;109630;-70
2024/01/04 06:05:12;;;;;;;;;;;10.20;99.90;;;;;;7331491;19;109758;-69
2024/01/04 06:07:39;;;;;;;;;;;10.20;99.90;;;;;;7331561;19;109055;-70
2024/01/04 06:10:07;;;;;;;;;;;10.30;99.90;;;;;;7335027;19;108813;-69
2024/01/04 06:12:34;;;;;;;;;;;10.30;99.90;;;;;;7336920;19;110832;-69
2024/01/04 06:15:03;;;;;;;;;;;10.30;99.90;;;;;;7335537;19;108878;-69
2024/01/04 06:17:30;;;;;;;;;;;10.30;99.90;;;;;;7338917;19;109338;-70
2024/01/04 06:19:57;;;;;;;;;;;10.30;99.90;;;;;;7329074;19;109661;-70
2024/01/04 06:22:24;;;;;;;;;;;10.30;99.90;;;;;;7332234;19;109760;-70
2024/01/04 06:24:52;;;;;;;;;;;10.30;99.90;;;;;;7337994;19;109379;-70
2024/01/04 06:27:19;;;;;;;;;;;10.30;99.90;;;;;;7332923;19;109289;-70
2024/01/04 06:29:46;;;;;;;;;;;10.30;99.90;;;;;;7334133;19;109723;-70
2024/01/04 06:32:13;;;;;;;;;;;10.30;99.90;;;;;;7330529;19;112223;-70
2024/01/04 06:34:41;;;;;;;;;;;10.30;99.90;;;;;;7332711;19;109207;-70
2024/01/04 06:37:09;;;;;;;;;;;10.30;99.90;;;;;;7330333;19;109169;-70
2024/01/04 06:39:37;;;;;;;;;;;10.30;99.90;;;;;;7333145;19;110224;-70
2024/01/04 06:42:04;;;;;;;;;;;10.30;99.90;;;;;;7331113;19;110970;-71
2024/01/04 06:44:33;;;;;;;;;;;10.30;99.90;;;;;;7331548;19;109669;-70
2024/01/04 06:47:13;;;;;;;;;;;10.40;99.90;;;;;;7336332;19;110290;-70
2024/01/04 06:49:40;;;;;;;;;;;10.30;99.90;;;;;;7333804;19;110210;-70
2024/01/04 06:52:08;;;;;;;;;;;10.40;99.90;;;;;;7330861;19;110095;-70
2024/01/04 06:54:35;;;;;;;;;;;10.30;99.90;;;;;;7334773;19;109024;-66
2024/01/04 06:57:06;;;;;;;;;;;10.30;99.90;;;;;;7328810;19;109457;-65
2024/01/04 06:59:34;;;;;;;;;;;10.30;99.90;;;;;;7333481;19;109407;-65
2024/01/04 07:02:04;;;;;;;;;;;10.30;99.90;;;;;;7330401;19;110720;-65
2024/01/04 07:04:32;;;;;;;;;;;10.30;99.90;;;;;;7331189;19;109232;-65
2024/01/04 07:06:59;;;;;;;;;;;10.40;99.90;;;;;;7328835;19;109251;-65
2024/01/04 07:09:26;;;;;;;;;;;10.30;99.90;;;;;;7336319;19;109369;-66
2024/01/04 07:11:54;;;;;;;;;;;10.30;99.90;;;;;;7332871;19;109116;-65
2024/01/04 07:14:21;;;;;;;;;;;10.30;99.90;;;;;;7330588;19;111412;-65
2024/01/04 07:16:49;;;;;;;;;;;10.40;99.90;;;;;;7332179;19;109330;-66
2024/01/04 07:19:16;;;;;;;;;;;10.30;99.90;;;;;;7333315;19;111369;-65
2024/01/04 07:21:44;;;;;;;;;;;10.30;99.90;;;;;;7332128;19;108800;-66
2024/01/04 07:24:11;;;;;;;;;;;10.30;99.90;;;;;;7332623;19;109210;-66
2024/01/04 07:26:38;;;;;;;;;;;10.30;99.90;;;;;;7331475;19;110815;-65
2024/01/04 07:29:05;;;;;;;;;;;10.30;99.90;;;;;;7339488;19;108989;-65
2024/01/04 07:31:32;;;;;;;;;;;10.30;99.90;;;;;;7326732;19;109943;-65
2024/01/04 07:34:00;;;;;;;;;;;10.30;99.90;;;;;;7329334;19;112900;-66
2024/01/04 07:36:27;;;;;;;;;;;10.30;99.90;;;;;;7331863;19;110390;-65
2024/01/04 07:38:54;;;;;;;;;;;10.30;99.90;;;;;;7333623;19;109933;-65
2024/01/04 07:41:22;;;;;;;;;;;10.30;99.90;;;;;;7332075;19;109536;-65
2024/01/04 07:43:49;;;;;;;;;;;10.30;99.90;;;;;;7331350;19;109437;-65
2024/01/04 07:46:16;;;;;;;;;;;10.30;99.90;;;;;;7332547;19;111467;-65
2024/01/04 07:48:44;;;;;;;;;;;10.30;99.90;;;;;;7333277;19;110360;-65
2024/01/04 07:51:11;;;;;;;;;;;10.30;99.90;;;;;;7337653;19;110560;-65
2024/01/04 07:53:40;;;;;;;;;;;10.30;99.90;;;;;;7329989;19;110038;-65
2024/01/04 07:56:07;;;;;;;;;;;10.30;99.90;;;;;;7332814;19;108828;-65
2024/01/04 07:58:34;;;;;;;;;;;10.30;99.90;;;;;;7331788;19;109174;-65
2024/01/04 08:01:02;;;;;;;;;;;10.30;99.90;;;;;;7331088;19;108699;-65
2024/01/04 08:03:30;;;;;;;;;;;10.30;99.90;;;;;;7329583;19;109049;-67
2024/01/04 08:05:58;;;;;;;;;;;10.30;99.90;;;;;;7329312;19;110062;-66
2024/01/04 08:08:28;;;;;;;;;;;10.30;99.90;;;;;;7330298;19;110458;-69
2024/01/04 08:10:55;;;;;;;;;;;10.40;99.90;;;;;;7330381;19;109114;-66
2024/01/04 08:13:22;;;;;;;;;;;10.30;99.90;;;;;;7337890;19;110079;-70
2024/01/04 08:15:50;;;;;;;;;;;10.30;99.90;;;;;;7330192;19;108744;-71
2024/01/04 08:18:18;;;;;;;;;;;10.40;99.90;;;;;;7331696;19;108969;-66
2024/01/04 08:20:45;;;;;;;;;;;10.40;99.90;;;;;;7330962;19;110751;-66
2024/01/04 08:23:13;;;;;;;;;;;10.40;99.90;;;;;;7327992;19;109620;-67
2024/01/04 08:25:41;;;;;;;;;;;10.40;99.90;;;;;;7330539;19;109182;-68
2024/01/04 08:28:11;;;;;;;;;;;10.40;99.90;;;;;;7328297;19;110085;-65
2024/01/04 08:30:38;;;;;;;;;;;10.40;99.90;;;;;;7331118;19;110908;-66
2024/01/04 08:33:05;;;;;;;;;;;10.40;99.90;;;;;;7326257;19;109492;-66
2024/01/04 08:35:32;;;;;;;;;;;10.40;99.90;;;;;;7336244;19;108913;-65
2024/01/04 08:38:00;;;;;;;;;;;10.40;99.90;;;;;;7329461;19;110307;-65
2024/01/04 08:40:27;;;;;;;;;;;10.40;99.90;;;;;;7331100;19;109168;-65
2024/01/04 08:42:54;;;;;;;;;;;10.40;99.90;;;;;;7330162;19;109948;-65
2024/01/04 08:45:21;;;;;;;;;;;10.40;99.90;;;;;;7329391;19;110169;-66
2024/01/04 08:47:48;;;;;;;;;;;10.40;99.90;;;;;;7331065;19;109794;-66
2024/01/04 08:50:16;;;;;;;;;;;10.40;99.90;;;;;;7330000;19;109181;-65
2024/01/04 08:52:43;;;;;;;;;;;10.40;99.90;;;;;;7326373;19;110578;-66
2024/01/04 08:55:10;;;;;;;;;;;10.40;99.90;;;;;;7330234;19;110259;-66
2024/01/04 08:57:38;;;;;;;;;;;10.40;99.90;;;;;;7335008;19;109957;-66
2024/01/04 09:00:05;;;;;;;;;;;10.40;99.90;;;;;;7328386;19;109255;-66
2024/01/04 09:02:32;;;;;;;;;;;10.40;99.90;;;;;;7328052;19;109996;-66
2024/01/04 09:04:59;;;;;;;;;;;10.40;99.90;;;;;;7329480;19;109569;-65
2024/01/04 09:07:27;;;;;;;;;;;10.40;99.90;;;;;;7328937;19;109271;-66
2024/01/04 09:09:54;;;;;;;;;;;10.40;99.90;;;;;;7325261;19;110260;-66
2024/01/04 09:12:21;;;;;;;;;;;10.40;99.90;;;;;;7330179;19;110038;-66
2024/01/04 09:14:49;;;;;;;;;;;10.40;99.90;;;;;;7329286;19;108895;-66
2024/01/04 09:17:17;;;;;;;;;;;10.40;99.90;;;;;;7335094;19;112565;-66
2024/01/04 09:19:44;;;;;;;;;;;10.40;99.90;;;;;;7328994;19;112164;-66
2024/01/04 09:22:12;;;;;;;;;;;10.40;99.90;;;;;;7330284;19;109614;-65
2024/01/04 09:24:39;;;;;;;;;;;10.40;99.90;;;;;;7329141;19;113081;-65
2024/01/04 09:27:06;;;;;;;;;;;10.40;99.90;;;;;;7326866;19;109451;-66
2024/01/04 09:29:34;;;;;;;;;;;10.40;99.90;;;;;;7328486;19;108941;-65
2024/01/04 09:32:01;;;;;;;;;;;10.40;99.90;;;;;;7327081;19;110224;-65
2024/01/04 09:34:28;;;;;;;;;;;10.40;99.90;;;;;;7329918;19;110017;-65
2024/01/04 09:36:56;;;;;;;;;;;10.40;99.90;;;;;;7328433;19;108710;-65
2024/01/04 09:39:23;;;;;;;;;;;10.50;99.90;;;;;;7333981;19;110689;-67
2024/01/04 09:41:51;;;;;;;;;;;10.50;99.90;;;;;;7329308;19;109433;-65
2024/01/04 09:44:19;;;;;;;;;;;10.40;99.90;;;;;;7328254;19;109144;-65
2024/01/04 09:46:48;;;;;;;;;;;10.50;99.90;;;;;;7327453;19;110823;-65
2024/01/04 09:49:15;;;;;;;;;;;10.50;99.90;;;;;;7327330;19;110548;-65
2024/01/04 09:51:42;;;;;;;;;;;10.50;99.90;;;;;;7327923;19;109425;-66
2024/01/04 09:54:10;;;;;;;;;;;10.40;99.90;;;;;;7328709;19;108523;-65
2024/01/04 09:56:37;;;;;;;;;;;10.50;99.90;;;;;;7326028;19;109932;-65
2024/01/04 09:59:05;;;;;;;;;;;10.50;99.90;;;;;;7328969;19;109520;-65
2024/01/04 10:01:35;;;;;;;;;;;10.40;99.90;;;;;;7332709;19;108806;-65
2024/01/04 10:04:06;;;;;;;;;;;10.50;99.90;;;;;;7325358;19;109197;-65
2024/01/04 10:06:35;;;;;;;;;;;10.50;99.90;;;;;;7329390;19;109550;-66
2024/01/04 10:09:14;;;;;;;;;;;10.50;99.90;;;;;;7323669;19;109337;-66
2024/01/04 10:11:53;;;;;;;;;;;10.50;99.90;;;;;;7330172;19;109263;-65
2024/01/04 10:14:22;;;;;;;;;;;10.50;99.90;;;;;;7327656;19;110981;-68
2024/01/04 10:16:49;;;;;;;;;;;10.50;99.90;;;;;;7329812;19;108913;-65
2024/01/04 10:19:16;;;;;;;;;;;10.60;99.90;;;;;;7329668;19;110171;-66
2024/01/04 10:21:50;;;;;;;;;;;10.60;99.90;;;;;;7319791;19;110369;-65
2024/01/04 10:24:24;;;;;;;;;;;10.60;99.90;;;;;;7332739;19;108736;-65
2024/01/04 10:26:54;;;;;;;;;;;10.60;99.90;;;;;;7326601;19;111845;-65
2024/01/04 10:29:23;;;;;;;;;;;10.60;99.90;;;;;;7327882;19;112735;-65
2024/01/04 10:32:00;;;;;;;;;;;10.60;99.90;;;;;;7324417;19;110851;-65
2024/01/04 10:34:27;;;;;;;;;;;10.60;99.90;;;;;;7327576;19;108740;-65
2024/01/04 10:37:07;;;;;;;;;;;10.60;99.90;;;;;;7325687;19;109640;-65
2024/01/04 10:39:35;;;;;;;;;;;10.60;99.90;;;;;;7327464;19;110606;-65
2024/01/04 10:42:02;;;;;;;;;;;10.60;99.90;;;;;;7332757;19;108780;-65
2024/01/04 10:44:29;;;;;;;;;;;10.60;99.90;;;;;;7335077;19;109406;-65
2024/01/04 10:46:56;;;;;;;;;;;10.60;99.90;;;;;;7340511;19;109830;-65
2024/01/04 10:49:24;;;;;;;;;;;10.60;99.90;;;;;;7330793;19;109627;-68
2024/01/04 10:51:52;;;;;;;;;;;10.60;99.90;;;;;;7135314;19;3808768;-65
2024/01/04 10:54:20;;;;;;;;;;;10.60;99.90;;;;;;7334891;19;112835;-65
2024/01/04 10:56:47;;;;;;;;;;;10.60;99.90;;;;;;7331010;19;109276;-65
2024/01/04 10:59:16;;;;;;;;;;;10.60;99.90;;;;;;7335355;19;110656;-65
2024/01/04 11:01:43;;;;;;;;;;;10.50;99.90;;;;;;7333053;19;108965;-65
2024/01/04 11:04:11;;;;;;;;;;;10.50;99.90;;;;;;7333075;19;110490;-65
2024/01/04 11:06:42;;;;;;;;;;;10.60;99.90;;;;;;7332084;19;109179;-65
2024/01/04 11:09:09;;;;;;;;;;;10.60;99.90;;;;;;7337831;19;110089;-66
2024/01/04 11:11:37;;;;;;;;;;;10.70;99.90;;;;;;7329347;19;109851;-66
2024/01/04 11:14:04;;;;;;;;;;;10.80;99.90;;;;;;7332815;19;109850;-65
2024/01/04 11:16:37;;;;;;;;;;;10.80;99.90;;;;;;7331906;19;111179;-65
2024/01/04 11:19:07;;;;;;;;;;;10.80;99.90;;;;;;7333057;19;109853;-65
2024/01/04 11:21:43;;;;;;;;;;;10.80;99.90;;;;;;7333279;19;110391;-65
2024/01/04 11:24:23;;;;;;;;;;;10.80;99.90;;;;;;7328066;19;108779;-65
2024/01/04 11:26:56;;;;;;;;;;;10.90;99.90;;;;;;7330178;19;109519;-65
2024/01/04 11:29:24;;;;;;;;;;;10.90;99.90;;;;;;7336662;19;109486;-65
2024/01/04 11:31:51;;;;;;;;;;;10.90;99.90;;;;;;7328583;19;109936;-65
2024/01/04 11:34:18;;;;;;;;;;;10.90;99.90;;;;;;7330133;19;110818;-65
2024/01/04 11:36:46;;;;;;;;;;;10.90;99.90;;;;;;7332729;19;109721;-65
2024/01/04 11:39:13;;;;;;;;;;;10.90;99.90;;;;;;7332799;19;109479;-65
2024/01/04 11:41:40;;;;;;;;;;;10.90;99.90;;;;;;7330386;19;109155;-65
2024/01/04 11:44:19;;;;;;;;;;;10.90;99.90;;;;;;7330283;19;108414;-65
2024/01/04 11:46:46;;;;;;;;;;;10.90;99.90;;;;;;7332435;19;110251;-65
2024/01/04 11:49:19;;;;;;;;;;;10.90;99.90;;;;;;7332726;19;109763;-65
2024/01/04 11:51:49;;;;;;;;;;;10.90;99.90;;;;;;7333083;19;108861;-65
2024/01/04 11:54:20;;;;;;;;;;;11.00;99.90;;;;;;7332857;19;109136;-65
2024/01/04 11:56:48;;;;;;;;;;;11.00;99.90;;;;;;7329792;19;109102;-65
2024/01/04 11:59:21;;;;;;;;;;;11.00;99.90;;;;;;7332540;19;109839;-65
2024/01/04 12:01:49;;;;;;;;;;;11.10;99.90;;;;;;7326236;19;108571;-65
2024/01/04 12:04:17;;;;;;;;;;;11.10;99.90;;;;;;7333081;19;109089;-65
2024/01/04 12:06:45;;;;;;;;;;;11.10;99.90;;;;;;7330666;19;110481;-65
2024/01/04 12:09:15;;;;;;;;;;;11.10;99.90;;;;;;7329864;19;108951;-65
2024/01/04 12:11:51;;;;;;;;;;;11.10;99.90;;;;;;7331553;19;109155;-65
2024/01/04 12:14:20;;;;;;;;;;;11.10;99.90;;;;;;7331136;19;110177;-65
2024/01/04 12:16:47;;;;;;;;;;;11.20;99.90;;;;;;7330041;19;108876;-65
2024/01/04 12:19:14;;;;;;;;;;;11.20;99.90;;;;;;7334036;19;109322;-65
2024/01/04 12:21:41;;;;;;;;;;;11.20;99.90;;;;;;7331986;19;109466;-65
2024/01/04 12:24:08;;;;;;;;;;;11.20;99.90;;;;;;7330609;19;109018;-65
2024/01/04 12:26:36;;;;;;;;;;;11.20;99.90;;;;;;7327431;19;109437;-65
2024/01/04 12:29:05;;;;;;;;;;;11.20;99.90;;;;;;7323944;19;110186;-65
2024/01/04 12:31:32;;;;;;;;;;;11.30;99.90;;;;;;7325583;19;110506;-65
2024/01/04 12:33:59;;;;;;;;;;;11.30;99.90;;;;;;7329853;19;109187;-65
2024/01/04 12:36:26;;;;;;;;;;;11.30;99.90;;;;;;7331877;19;109875;-65
2024/01/04 12:38:54;;;;;;;;;;;11.40;99.90;;;;;;7331187;19;109369;-64
2024/01/04 12:41:25;;;;;;;;;;;11.50;99.90;;;;;;7330170;19;109091;-65
2024/01/04 12:43:53;;;;;;;;;;;11.50;99.90;;;;;;7328641;19;110438;-64
2024/01/04 12:46:21;;;;;;;;;;;11.60;99.90;;;;;;7329129;19;109084;-65
2024/01/04 12:48:49;;;;;;;;;;;11.70;99.90;;;;;;7329144;19;109107;-65
2024/01/04 12:51:16;;;;;;;;;;;11.70;99.90;;;;;;7330956;19;110264;-65
2024/01/04 12:53:47;;;;;;;;;;;11.70;99.90;;;;;;7329546;19;110093;-65
2024/01/04 12:56:19;;;;;;;;;;;11.80;99.90;;;;;;7330259;19;110118;-67
2024/01/04 12:58:46;;;;;;;;;;;11.80;99.90;;;;;;7331786;19;108902;-67
2024/01/04 13:01:14;;;;;;;;;;;11.80;99.90;;;;;;7330402;19;110557;-66
2024/01/04 13:03:44;;;;;;;;;;;11.80;99.90;;;;;;7325435;19;110021;-64
2024/01/04 13:06:12;;;;;;;;;;;11.80;99.90;;;;;;7329179;19;108983;-66
2024/01/04 13:08:39;;;;;;;;;;;11.70;99.90;;;;;;7325763;19;108780;-67
2024/01/04 13:11:08;;;;;;;;;;;11.70;99.90;;;;;;7330698;19;108756;-67
2024/01/04 13:13:37;;;;;;;;;;;11.70;99.90;;;;;;7327765;19;110002;-65
2024/01/04 13:16:04;;;;;;;;;;;11.80;99.90;;;;;;7327575;19;109341;-65
2024/01/04 13:18:31;;;;;;;;;;;11.90;99.90;;;;;;7330175;19;108852;-65
2024/01/04 13:20:59;;;;;;;;;;;11.90;99.90;;;;;;7334149;19;109693;-65
2024/01/04 13:23:28;;;;;;;;;;;11.90;99.90;;;;;;7329218;19;108563;-65
2024/01/04 13:25:56;;;;;;;;;;;11.90;99.90;;;;;;7327716;19;110365;-65
2024/01/04 13:28:23;;;;;;;;;;;12.00;99.90;;;;;;7328628;19;109242;-65
2024/01/04 13:30:51;;;;;;;;;;;12.00;99.90;;;;;;7325937;19;109854;-65
2024/01/04 13:33:20;;;;;;;;;;;12.00;99.90;;;;;;7326537;19;109121;-65
2024/01/04 13:35:47;;;;;;;;;;;11.90;99.90;;;;;;7327166;19;109529;-67
2024/01/04 13:38:14;;;;;;;;;;;11.90;99.90;;;;;;7326579;19;113867;-65
2024/01/04 13:40:41;;;;;;;;;;;12.00;99.90;;;;;;7334423;19;110743;-65
2024/01/04 13:43:09;;;;;;;;;;;12.00;99.90;;;;;;7329967;19;108720;-65
2024/01/04 13:45:36;;;;;;;;;;;12.00;99.90;;;;;;7327320;19;109317;-65
2024/01/04 13:48:03;;;;;;;;;;;12.00;99.90;;;;;;7329458;19;108602;-65
2024/01/04 13:50:30;;;;;;;;;;;12.10;99.90;;;;;;7329066;19;109450;-65
2024/01/04 13:52:57;;;;;;;;;;;12.10;99.90;;;;;;7327544;19;109332;-66
2024/01/04 13:55:24;;;;;;;;;;;12.20;99.90;;;;;;7328311;19;108956;-65
2024/01/04 13:57:51;;;;;;;;;;;12.20;99.90;;;;;;7329064;19;108983;-65
2024/01/04 14:00:22;;;;;;;;;;;12.10;99.90;;;;;;7324842;19;109119;-65
2024/01/04 14:02:50;;;;;;;;;;;12.00;99.90;;;;;;7332999;19;110331;-65
2024/01/04 14:05:17;;;;;;;;;;;12.00;99.90;;;;;;7327773;19;109169;-65
2024/01/04 14:07:44;;;;;;;;;;;12.00;99.90;;;;;;7327227;19;108514;-65